sensor_id;sensor_type;location;lat;lon;timestamp;temperature;humidity
19292;DHT22;9779;51.756;7.450;2022-08-23T00:01:15;21.90;99.90
19292;DHT22;9779;51.756;7.450;2022-08-23T00:03:42;22.10;99.90
19292;DHT22;9779;51.756;7.450;2022-08-23T00:06:09;22.10;99.90
19292;DHT22;9779;51.756;7.450;2022-08-23T00:08:35;22.00;99.90
19292;DHT22;9779;51.756;7.450;2022-08-23T00:11:01;22.00;99.90
19292;DHT22;9779;51.756;7.450;2022-08-23T00:13:27;21.90;99.90
19292;DHT22;9779;51.756;7.450;2022-08-23T00:15:53;21.90;99.90
19292;DHT22;9779;51.756;7.450;2022-08-23T00:18:19;21.80;99.90
19292;DHT22;9779;51.756;7.450;2022-08-23T00:20:45;21.80;99.90
19292;DHT22;9779;51.756;7.450;2022-08-23T00:23:12;21.70;99.90
19292;DHT22;9779;51.756;7.450;2022-08-23T00:25:38;21.70;99.90
19292;DHT22;9779;51.756;7.450;2022-08-23T00:28:03;21.70;99.90
19292;DHT22;9779;51.756;7.450;2022-08-23T00:30:29;21.60;99.90
19292;DHT22;9779;51.756;7.450;2022-08-23T00:32:56;21.60;99.90
19292;DHT22;9779;51.756;7.450;2022-08-23T00:35:22;21.60;99.90
19292;DHT22;9779;51.756;7.450;2022-08-23T00:37:47;21.50;99.90
19292;DHT22;9779;51.756;7.450;2022-08-23T00:40:16;21.40;99.90
19292;DHT22;9779;51.756;7.450;2022-08-23T00:42:43;21.40;99.90
19292;DHT22;9779;51.756;7.450;2022-08-23T00:45:47;21.40;99.90
19292;DHT22;9779;51.756;7.450;2022-08-23T00:48:34;21.30;99.90
19292;DHT22;9779;51.756;7.450;2022-08-23T00:51:20;21.30;99.90
19292;DHT22;9779;51.756;7.450;2022-08-23T00:53:51;21.20;99.90
19292;DHT22;9779;51.756;7.450;2022-08-23T00:56:20;21.20;99.90
19292;DHT22;9779;51.756;7.450;2022-08-23T00:58:47;21.20;99.90
19292;DHT22;9779;51.756;7.450;2022-08-23T01:01:14;21.10;99.90
19292;DHT22;9779;51.756;7.450;2022-08-23T01:03:42;21.10;99.90
19292;DHT22;9779;51.756;7.450;2022-08-23T01:08:42;21.00;99.90
19292;DHT22;9779;51.756;7.450;2022-08-23T01:11:14;21.00;99.90
19292;DHT22;9779;51.756;7.450;2022-08-23T01:13:43;20.90;99.90
19292;DHT22;9779;51.756;7.450;2022-08-23T01:16:35;20.80;99.90
19292;DHT22;9779;51.756;7.450;2022-08-23T01:19:04;20.80;99.90
19292;DHT22;9779;51.756;7.450;2022-08-23T01:21:42;20.70;99.90
19292;DHT22;9779;51.756;7.450;2022-08-23T01:24:10;20.70;99.90
19292;DHT22;9779;51.756;7.450;2022-08-23T01:26:36;20.60;99.90
19292;DHT22;9779;51.756;7.450;2022-08-23T01:29:04;20.50;99.90
19292;DHT22;9779;51.756;7.450;2022-08-23T01:31:31;20.50;99.90
19292;DHT22;9779;51.756;7.450;2022-08-23T01:33:59;20.50;99.90
19292;DHT22;9779;51.756;7.450;2022-08-23T01:36:26;20.50;99.90
19292;DHT22;9779;51.756;7.450;2022-08-23T01:38:52;20.40;99.90
19292;DHT22;9779;51.756;7.450;2022-08-23T01:41:18;20.30;99.90
19292;DHT22;9779;51.756;7.450;2022-08-23T01:43:44;20.30;99.90
19292;DHT22;9779;51.756;7.450;2022-08-23T01:46:17;20.20;99.90
19292;DHT22;9779;51.756;7.450;2022-08-23T01:48:43;20.20;99.90
19292;DHT22;9779;51.756;7.450;2022-08-23T01:51:12;20.20;99.90
19292;DHT22;9779;51.756;7.450;2022-08-23T01:53:37;20.20;99.90
19292;DHT22;9779;51.756;7.450;2022-08-23T01:56:04;20.10;99.90
19292;DHT22;9779;51.756;7.450;2022-08-23T01:58:31;20.10;99.90
19292;DHT22;9779;51.756;7.450;2022-08-23T02:00:57;20.00;99.90
19292;DHT22;9779;51.756;7.450;2022-08-23T02:03:23;20.00;99.90
19292;DHT22;9779;51.756;7.450;2022-08-23T02:05:49;19.90;99.90
19292;DHT22;9779;51.756;7.450;2022-08-23T02:08:15;19.90;99.90
19292;DHT22;9779;51.756;7.450;2022-08-23T02:11:10;19.90;99.90
19292;DHT22;9779;51.756;7.450;2022-08-23T02:13:36;19.80;99.90
19292;DHT22;9779;51.756;7.450;2022-08-23T02:16:03;19.80;99.90
19292;DHT22;9779;51.756;7.450;2022-08-23T02:18:29;19.80;99.90
19292;DHT22;9779;51.756;7.450;2022-08-23T02:20:55;19.80;99.90
19292;DHT22;9779;51.756;7.450;2022-08-23T02:23:21;19.70;99.90
19292;DHT22;9779;51.756;7.450;2022-08-23T02:25:48;19.70;99.90
19292;DHT22;9779;51.756;7.450;2022-08-23T02:28:16;19.60;99.90
19292;DHT22;9779;51.756;7.450;2022-08-23T02:30:43;19.60;99.90
19292;DHT22;9779;51.756;7.450;2022-08-23T02:33:09;19.60;99.90
19292;DHT22;9779;51.756;7.450;2022-08-23T02:35:35;19.50;99.90
19292;DHT22;9779;51.756;7.450;2022-08-23T02:38:05;19.50;99.90
19292;DHT22;9779;51.756;7.450;2022-08-23T02:40:31;19.60;99.90
19292;DHT22;9779;51.756;7.450;2022-08-23T02:42:57;19.50;99.90
19292;DHT22;9779;51.756;7.450;2022-08-23T02:45:25;19.40;99.90
19292;DHT22;9779;51.756;7.450;2022-08-23T02:47:51;19.30;99.90
19292;DHT22;9779;51.756;7.450;2022-08-23T02:50:17;19.30;99.90
19292;DHT22;9779;51.756;7.450;2022-08-23T02:52:43;19.30;99.90
19292;DHT22;9779;51.756;7.450;2022-08-23T02:55:09;19.20;99.90
19292;DHT22;9779;51.756;7.450;2022-08-23T02:57:34;19.20;99.90
19292;DHT22;9779;51.756;7.450;2022-08-23T03:00:00;19.20;99.90
19292;DHT22;9779;51.756;7.450;2022-08-23T03:02:26;19.10;99.90
19292;DHT22;9779;51.756;7.450;2022-08-23T03:04:52;19.10;99.90
19292;DHT22;9779;51.756;7.450;2022-08-23T03:07:17;19.10;99.90
19292;DHT22;9779;51.756;7.450;2022-08-23T03:09:43;19.00;99.90
19292;DHT22;9779;51.756;7.450;2022-08-23T03:12:09;19.00;99.90
19292;DHT22;9779;51.756;7.450;2022-08-23T03:14:35;18.90;99.90
19292;DHT22;9779;51.756;7.450;2022-08-23T03:17:03;18.90;99.90
19292;DHT22;9779;51.756;7.450;2022-08-23T03:19:28;18.80;99.90
19292;DHT22;9779;51.756;7.450;2022-08-23T03:21:54;18.80;99.90
19292;DHT22;9779;51.756;7.450;2022-08-23T03:24:20;18.80;99.90
19292;DHT22;9779;51.756;7.450;2022-08-23T03:26:46;18.80;99.90
19292;DHT22;9779;51.756;7.450;2022-08-23T03:29:12;18.70;99.90
19292;DHT22;9779;51.756;7.450;2022-08-23T03:31:38;18.70;99.90
19292;DHT22;9779;51.756;7.450;2022-08-23T03:34:04;18.70;99.90
19292;DHT22;9779;51.756;7.450;2022-08-23T03:36:30;18.70;99.90
19292;DHT22;9779;51.756;7.450;2022-08-23T03:38:56;18.60;99.90
19292;DHT22;9779;51.756;7.450;2022-08-23T03:41:22;18.60;99.90
19292;DHT22;9779;51.756;7.450;2022-08-23T03:43:48;18.60;99.90
19292;DHT22;9779;51.756;7.450;2022-08-23T03:46:13;18.50;99.90
19292;DHT22;9779;51.756;7.450;2022-08-23T03:48:49;18.50;99.90
19292;DHT22;9779;51.756;7.450;2022-08-23T03:51:16;18.40;99.90
19292;DHT22;9779;51.756;7.450;2022-08-23T03:53:42;18.40;99.90
19292;DHT22;9779;51.756;7.450;2022-08-23T03:56:07;18.30;99.90
19292;DHT22;9779;51.756;7.450;2022-08-23T03:58:33;18.30;99.90
19292;DHT22;9779;51.756;7.450;2022-08-23T04:00:59;18.30;99.90
19292;DHT22;9779;51.756;7.450;2022-08-23T04:03:24;18.20;99.90
19292;DHT22;9779;51.756;7.450;2022-08-23T04:05:50;18.20;99.90
19292;DHT22;9779;51.756;7.450;2022-08-23T04:08:15;18.20;99.90
19292;DHT22;9779;51.756;7.450;2022-08-23T04:10:41;18.20;99.90
19292;DHT22;9779;51.756;7.450;2022-08-23T04:13:08;18.20;99.90
19292;DHT22;9779;51.756;7.450;2022-08-23T04:15:35;18.10;99.90
19292;DHT22;9779;51.756;7.450;2022-08-23T04:18:00;18.10;99.90
19292;DHT22;9779;51.756;7.450;2022-08-23T04:20:26;18.10;99.90
19292;DHT22;9779;51.756;7.450;2022-08-23T04:22:53;18.10;99.90
19292;DHT22;9779;51.756;7.450;2022-08-23T04:25:20;18.00;99.90
19292;DHT22;9779;51.756;7.450;2022-08-23T04:27:45;18.00;99.90
19292;DHT22;9779;51.756;7.450;2022-08-23T04:30:11;18.00;99.90
19292;DHT22;9779;51.756;7.450;2022-08-23T04:32:37;18.00;99.90
19292;DHT22;9779;51.756;7.450;2022-08-23T04:35:04;18.00;99.90
19292;DHT22;9779;51.756;7.450;2022-08-23T04:37:30;18.00;99.90
19292;DHT22;9779;51.756;7.450;2022-08-23T04:39:55;18.10;99.90
19292;DHT22;9779;51.756;7.450;2022-08-23T04:42:39;18.20;99.90
19292;DHT22;9779;51.756;7.450;2022-08-23T04:45:05;18.30;99.90
19292;DHT22;9779;51.756;7.450;2022-08-23T04:47:31;18.40;99.90
19292;DHT22;9779;51.756;7.450;2022-08-23T04:49:57;18.50;99.90
19292;DHT22;9779;51.756;7.450;2022-08-23T04:52:22;18.50;99.90
19292;DHT22;9779;51.756;7.450;2022-08-23T04:54:48;18.60;99.90
19292;DHT22;9779;51.756;7.450;2022-08-23T04:57:14;18.60;99.90
19292;DHT22;9779;51.756;7.450;2022-08-23T04:59:39;18.70;99.90
19292;DHT22;9779;51.756;7.450;2022-08-23T05:02:05;18.70;99.90
19292;DHT22;9779;51.756;7.450;2022-08-23T05:04:31;18.70;99.90
19292;DHT22;9779;51.756;7.450;2022-08-23T05:06:57;18.70;99.90
19292;DHT22;9779;51.756;7.450;2022-08-23T05:09:22;18.70;99.90
19292;DHT22;9779;51.756;7.450;2022-08-23T05:11:49;18.70;99.90
19292;DHT22;9779;51.756;7.450;2022-08-23T05:14:15;18.80;99.90
19292;DHT22;9779;51.756;7.450;2022-08-23T05:16:40;18.80;99.90
19292;DHT22;9779;51.756;7.450;2022-08-23T05:19:06;18.80;99.90
19292;DHT22;9779;51.756;7.450;2022-08-23T05:21:32;18.80;99.90
19292;DHT22;9779;51.756;7.450;2022-08-23T05:23:59;18.80;99.90
19292;DHT22;9779;51.756;7.450;2022-08-23T05:26:25;18.80;99.90
19292;DHT22;9779;51.756;7.450;2022-08-23T05:28:50;18.90;99.90
19292;DHT22;9779;51.756;7.450;2022-08-23T05:31:19;18.90;99.90
19292;DHT22;9779;51.756;7.450;2022-08-23T05:33:46;18.90;99.90
19292;DHT22;9779;51.756;7.450;2022-08-23T05:36:13;19.00;99.90
19292;DHT22;9779;51.756;7.450;2022-08-23T05:38:40;19.00;99.90
19292;DHT22;9779;51.756;7.450;2022-08-23T05:41:06;19.00;99.90
19292;DHT22;9779;51.756;7.450;2022-08-23T05:43:32;19.10;99.90
19292;DHT22;9779;51.756;7.450;2022-08-23T05:46:13;19.10;99.90
19292;DHT22;9779;51.756;7.450;2022-08-23T05:48:41;19.10;99.90
19292;DHT22;9779;51.756;7.450;2022-08-23T05:51:28;19.10;99.90
19292;DHT22;9779;51.756;7.450;2022-08-23T05:53:57;19.10;99.90
19292;DHT22;9779;51.756;7.450;2022-08-23T05:56:26;19.10;99.90
19292;DHT22;9779;51.756;7.450;2022-08-23T05:58:53;19.00;99.90
19292;DHT22;9779;51.756;7.450;2022-08-23T06:01:19;19.00;99.90
19292;DHT22;9779;51.756;7.450;2022-08-23T06:03:45;18.90;99.90
19292;DHT22;9779;51.756;7.450;2022-08-23T06:06:12;18.80;99.90
19292;DHT22;9779;51.756;7.450;2022-08-23T06:08:40;18.80;99.90
19292;DHT22;9779;51.756;7.450;2022-08-23T06:11:09;18.80;99.90
19292;DHT22;9779;51.756;7.450;2022-08-23T06:13:42;18.80;99.90
19292;DHT22;9779;51.756;7.450;2022-08-23T06:16:09;18.80;99.90
19292;DHT22;9779;51.756;7.450;2022-08-23T06:18:35;18.80;99.90
19292;DHT22;9779;51.756;7.450;2022-08-23T06:21:03;18.80;99.90
19292;DHT22;9779;51.756;7.450;2022-08-23T06:23:29;18.80;99.90
19292;DHT22;9779;51.756;7.450;2022-08-23T06:25:55;18.80;99.90
19292;DHT22;9779;51.756;7.450;2022-08-23T06:28:21;18.70;99.90
19292;DHT22;9779;51.756;7.450;2022-08-23T06:30:47;18.80;99.90
19292;DHT22;9779;51.756;7.450;2022-08-23T06:33:13;18.80;99.90
19292;DHT22;9779;51.756;7.450;2022-08-23T06:35:38;18.80;99.90
19292;DHT22;9779;51.756;7.450;2022-08-23T06:38:06;18.90;99.90
19292;DHT22;9779;51.756;7.450;2022-08-23T06:40:33;18.90;99.90
19292;DHT22;9779;51.756;7.450;2022-08-23T06:42:59;18.90;99.90
19292;DHT22;9779;51.756;7.450;2022-08-23T06:45:25;18.90;99.90
19292;DHT22;9779;51.756;7.450;2022-08-23T06:47:51;18.90;99.90
19292;DHT22;9779;51.756;7.450;2022-08-23T06:50:16;19.00;99.90
19292;DHT22;9779;51.756;7.450;2022-08-23T06:52:46;19.00;99.90
19292;DHT22;9779;51.756;7.450;2022-08-23T06:55:12;19.10;99.90
19292;DHT22;9779;51.756;7.450;2022-08-23T06:57:38;19.10;99.90
19292;DHT22;9779;51.756;7.450;2022-08-23T07:00:05;19.10;99.90
19292;DHT22;9779;51.756;7.450;2022-08-23T07:02:31;19.20;99.90
19292;DHT22;9779;51.756;7.450;2022-08-23T07:04:56;19.20;99.90
19292;DHT22;9779;51.756;7.450;2022-08-23T07:07:22;19.30;99.90
19292;DHT22;9779;51.756;7.450;2022-08-23T07:09:48;19.30;99.90
19292;DHT22;9779;51.756;7.450;2022-08-23T07:12:13;19.40;99.90
19292;DHT22;9779;51.756;7.450;2022-08-23T07:14:39;19.40;99.90
19292;DHT22;9779;51.756;7.450;2022-08-23T07:17:07;19.50;99.90
19292;DHT22;9779;51.756;7.450;2022-08-23T07:19:34;19.60;99.90
19292;DHT22;9779;51.756;7.450;2022-08-23T07:22:01;19.60;99.90
19292;DHT22;9779;51.756;7.450;2022-08-23T07:24:28;19.70;99.90
19292;DHT22;9779;51.756;7.450;2022-08-23T07:26:53;19.70;99.90
19292;DHT22;9779;51.756;7.450;2022-08-23T07:29:20;19.80;99.90
19292;DHT22;9779;51.756;7.450;2022-08-23T07:31:49;19.90;99.90
19292;DHT22;9779;51.756;7.450;2022-08-23T07:34:16;19.90;99.90
19292;DHT22;9779;51.756;7.450;2022-08-23T07:36:43;20.00;99.90
19292;DHT22;9779;51.756;7.450;2022-08-23T07:39:12;20.10;99.90
19292;DHT22;9779;51.756;7.450;2022-08-23T07:41:38;20.20;99.90
19292;DHT22;9779;51.756;7.450;2022-08-23T07:44:05;20.20;99.90
19292;DHT22;9779;51.756;7.450;2022-08-23T07:46:33;20.20;99.90
19292;DHT22;9779;51.756;7.450;2022-08-23T07:49:00;20.40;99.90
19292;DHT22;9779;51.756;7.450;2022-08-23T07:51:28;20.50;99.90
19292;DHT22;9779;51.756;7.450;2022-08-23T07:53:54;20.60;99.90
19292;DHT22;9779;51.756;7.450;2022-08-23T07:56:20;20.70;99.90
19292;DHT22;9779;51.756;7.450;2022-08-23T07:58:46;20.90;99.90
19292;DHT22;9779;51.756;7.450;2022-08-23T08:01:18;20.90;99.90
19292;DHT22;9779;51.756;7.450;2022-08-23T08:03:45;21.00;99.90
19292;DHT22;9779;51.756;7.450;2022-08-23T08:06:33;21.10;99.90
19292;DHT22;9779;51.756;7.450;2022-08-23T08:08:59;21.20;99.90
19292;DHT22;9779;51.756;7.450;2022-08-23T08:11:27;21.20;99.90
19292;DHT22;9779;51.756;7.450;2022-08-23T08:13:53;21.40;99.90
19292;DHT22;9779;51.756;7.450;2022-08-23T08:16:25;21.50;99.90
19292;DHT22;9779;51.756;7.450;2022-08-23T08:18:56;21.60;99.90
19292;DHT22;9779;51.756;7.450;2022-08-23T08:21:23;21.60;99.90
19292;DHT22;9779;51.756;7.450;2022-08-23T08:23:49;21.80;99.90
19292;DHT22;9779;51.756;7.450;2022-08-23T08:26:15;21.80;99.90
19292;DHT22;9779;51.756;7.450;2022-08-23T08:28:41;21.90;99.90
19292;DHT22;9779;51.756;7.450;2022-08-23T08:31:08;22.00;99.90
19292;DHT22;9779;51.756;7.450;2022-08-23T08:33:34;22.10;99.90
19292;DHT22;9779;51.756;7.450;2022-08-23T08:36:00;22.20;99.90
19292;DHT22;9779;51.756;7.450;2022-08-23T08:38:26;22.20;99.90
19292;DHT22;9779;51.756;7.450;2022-08-23T08:41:09;22.40;99.90
19292;DHT22;9779;51.756;7.450;2022-08-23T08:43:48;22.60;99.90
19292;DHT22;9779;51.756;7.450;2022-08-23T08:46:25;22.70;99.90
19292;DHT22;9779;51.756;7.450;2022-08-23T08:48:55;22.70;99.90
19292;DHT22;9779;51.756;7.450;2022-08-23T08:51:43;22.90;99.90
19292;DHT22;9779;51.756;7.450;2022-08-23T08:54:13;23.00;99.90
19292;DHT22;9779;51.756;7.450;2022-08-23T08:56:44;23.10;99.90
19292;DHT22;9779;51.756;7.450;2022-08-23T09:02:15;23.40;99.90
19292;DHT22;9779;51.756;7.450;2022-08-23T09:04:41;23.50;99.90
19292;DHT22;9779;51.756;7.450;2022-08-23T09:07:27;23.70;99.90
19292;DHT22;9779;51.756;7.450;2022-08-23T09:10:08;23.80;99.90
19292;DHT22;9779;51.756;7.450;2022-08-23T09:15:17;24.10;99.90
19292;DHT22;9779;51.756;7.450;2022-08-23T09:17:48;24.20;99.90
19292;DHT22;9779;51.756;7.450;2022-08-23T09:20:17;24.30;99.90
19292;DHT22;9779;51.756;7.450;2022-08-23T09:22:47;24.40;99.90
19292;DHT22;9779;51.756;7.450;2022-08-23T09:25:13;24.60;99.90
19292;DHT22;9779;51.756;7.450;2022-08-23T09:27:42;24.80;99.90
19292;DHT22;9779;51.756;7.450;2022-08-23T09:30:11;24.90;99.90
19292;DHT22;9779;51.756;7.450;2022-08-23T09:32:38;25.00;99.90
19292;DHT22;9779;51.756;7.450;2022-08-23T09:35:38;25.10;99.90
19292;DHT22;9779;51.756;7.450;2022-08-23T09:38:00;25.40;99.90
19292;DHT22;9779;51.756;7.450;2022-08-23T09:40:36;25.50;99.90
19292;DHT22;9779;51.756;7.450;2022-08-23T09:43:07;25.60;99.90
19292;DHT22;9779;51.756;7.450;2022-08-23T09:45:36;25.80;99.90
19292;DHT22;9779;51.756;7.450;2022-08-23T09:48:04;26.00;99.90
19292;DHT22;9779;51.756;7.450;2022-08-23T09:50:35;26.10;99.90
19292;DHT22;9779;51.756;7.450;2022-08-23T09:53:09;26.20;99.90
19292;DHT22;9779;51.756;7.450;2022-08-23T09:55:39;26.50;99.90
19292;DHT22;9779;51.756;7.450;2022-08-23T09:58:29;26.70;99.90
19292;DHT22;9779;51.756;7.450;2022-08-23T10:03:41;27.00;99.90
19292;DHT22;9779;51.756;7.450;2022-08-23T10:06:07;27.10;99.90
19292;DHT22;9779;51.756;7.450;2022-08-23T10:08:38;27.20;99.50
19292;DHT22;9779;51.756;7.450;2022-08-23T10:11:20;27.50;99.80
19292;DHT22;9779;51.756;7.450;2022-08-23T10:13:48;27.60;97.80
19292;DHT22;9779;51.756;7.450;2022-08-23T10:16:26;27.60;95.20
19292;DHT22;9779;51.756;7.450;2022-08-23T10:30:22;28.40;92.00
19292;DHT22;9779;51.756;7.450;2022-08-23T10:33:07;28.50;92.40
19292;DHT22;9779;51.756;7.450;2022-08-23T10:36:02;28.80;92.90
19292;DHT22;9779;51.756;7.450;2022-08-23T10:38:33;29.00;91.60
19292;DHT22;9779;51.756;7.450;2022-08-23T10:47:09;29.90;86.70
19292;DHT22;9779;51.756;7.450;2022-08-23T10:49:39;30.10;88.80
19292;DHT22;9779;51.756;7.450;2022-08-23T10:52:08;30.40;85.00
19292;DHT22;9779;51.756;7.450;2022-08-23T10:54:40;30.50;85.40
19292;DHT22;9779;51.756;7.450;2022-08-23T10:57:29;30.60;85.50
19292;DHT22;9779;51.756;7.450;2022-08-23T10:59:55;30.70;85.20
19292;DHT22;9779;51.756;7.450;2022-08-23T11:02:49;30.70;83.50
19292;DHT22;9779;51.756;7.450;2022-08-23T11:05:22;30.90;85.50
19292;DHT22;9779;51.756;7.450;2022-08-23T11:08:31;31.00;83.50
19292;DHT22;9779;51.756;7.450;2022-08-23T11:10:57;31.10;81.10
19292;DHT22;9779;51.756;7.450;2022-08-23T11:13:25;31.20;78.30
19292;DHT22;9779;51.756;7.450;2022-08-23T11:16:02;31.00;81.90
19292;DHT22;9779;51.756;7.450;2022-08-23T11:18:42;30.90;79.60
19292;DHT22;9779;51.756;7.450;2022-08-23T11:31:33;31.40;78.40
19292;DHT22;9779;51.756;7.450;2022-08-23T11:36:28;32.00;76.20
19292;DHT22;9779;51.756;7.450;2022-08-23T11:41:35;32.20;73.20
19292;DHT22;9779;51.756;7.450;2022-08-23T11:44:23;32.50;76.20
19292;DHT22;9779;51.756;7.450;2022-08-23T12:00:24;33.20;55.70
19292;DHT22;9779;51.756;7.450;2022-08-23T12:03:05;33.40;58.20
19292;DHT22;9779;51.756;7.450;2022-08-23T12:16:10;33.80;55.20
19292;DHT22;9779;51.756;7.450;2022-08-23T12:18:57;34.00;54.10
19292;DHT22;9779;51.756;7.450;2022-08-23T12:21:39;33.90;52.70
19292;DHT22;9779;51.756;7.450;2022-08-23T12:30:05;34.00;50.00
19292;DHT22;9779;51.756;7.450;2022-08-23T12:32:56;34.40;52.40
19292;DHT22;9779;51.756;7.450;2022-08-23T12:35:34;34.00;48.40
19292;DHT22;9779;51.756;7.450;2022-08-23T12:41:16;34.20;50.20
19292;DHT22;9779;51.756;7.450;2022-08-23T12:43:57;34.60;47.90
19292;DHT22;9779;51.756;7.450;2022-08-23T12:46:49;34.80;48.50
19292;DHT22;9779;51.756;7.450;2022-08-23T12:49:30;34.80;47.60
19292;DHT22;9779;51.756;7.450;2022-08-23T12:51:59;35.20;44.60
19292;DHT22;9779;51.756;7.450;2022-08-23T12:54:51;35.50;43.80
19292;DHT22;9779;51.756;7.450;2022-08-23T12:57:49;35.50;43.20
19292;DHT22;9779;51.756;7.450;2022-08-23T13:02:41;35.50;42.90
19292;DHT22;9779;51.756;7.450;2022-08-23T13:05:13;35.50;44.00
19292;DHT22;9779;51.756;7.450;2022-08-23T13:07:41;35.80;43.10
19292;DHT22;9779;51.756;7.450;2022-08-23T13:10:08;35.60;43.70
19292;DHT22;9779;51.756;7.450;2022-08-23T13:12:35;35.70;42.20
19292;DHT22;9779;51.756;7.450;2022-08-23T13:15:02;35.40;42.30
19292;DHT22;9779;51.756;7.450;2022-08-23T13:17:35;35.60;43.40
19292;DHT22;9779;51.756;7.450;2022-08-23T13:22:35;35.50;44.60
19292;DHT22;9779;51.756;7.450;2022-08-23T13:25:05;35.70;42.60
19292;DHT22;9779;51.756;7.450;2022-08-23T13:32:38;35.80;41.10
19292;DHT22;9779;51.756;7.450;2022-08-23T13:38:01;35.20;38.80
19292;DHT22;9779;51.756;7.450;2022-08-23T13:41:08;35.10;40.70
19292;DHT22;9779;51.756;7.450;2022-08-23T13:43:39;35.20;40.60
19292;DHT22;9779;51.756;7.450;2022-08-23T13:46:14;35.20;40.40
19292;DHT22;9779;51.756;7.450;2022-08-23T13:51:32;35.50;40.20
19292;DHT22;9779;51.756;7.450;2022-08-23T13:54:00;35.60;40.00
19292;DHT22;9779;51.756;7.450;2022-08-23T13:56:27;36.10;40.60
19292;DHT22;9779;51.756;7.450;2022-08-23T13:59:06;36.40;39.00
19292;DHT22;9779;51.756;7.450;2022-08-23T14:01:40;36.80;40.50
19292;DHT22;9779;51.756;7.450;2022-08-23T14:04:06;37.10;39.40
19292;DHT22;9779;51.756;7.450;2022-08-23T14:06:31;37.00;36.10
19292;DHT22;9779;51.756;7.450;2022-08-23T14:08:57;36.80;36.50
19292;DHT22;9779;51.756;7.450;2022-08-23T14:11:22;36.70;36.00
19292;DHT22;9779;51.756;7.450;2022-08-23T14:13:48;36.20;36.20
19292;DHT22;9779;51.756;7.450;2022-08-23T14:16:25;35.60;37.80
19292;DHT22;9779;51.756;7.450;2022-08-23T14:18:52;35.30;38.00
19292;DHT22;9779;51.756;7.450;2022-08-23T14:21:17;35.80;38.40
19292;DHT22;9779;51.756;7.450;2022-08-23T14:23:43;36.10;37.40
19292;DHT22;9779;51.756;7.450;2022-08-23T14:26:11;35.90;36.50
19292;DHT22;9779;51.756;7.450;2022-08-23T14:28:38;36.00;39.10
19292;DHT22;9779;51.756;7.450;2022-08-23T14:31:04;36.30;36.50
19292;DHT22;9779;51.756;7.450;2022-08-23T14:33:29;36.60;38.30
19292;DHT22;9779;51.756;7.450;2022-08-23T14:35:55;36.70;36.90
19292;DHT22;9779;51.756;7.450;2022-08-23T14:38:21;37.10;37.30
19292;DHT22;9779;51.756;7.450;2022-08-23T14:41:01;36.90;36.10
19292;DHT22;9779;51.756;7.450;2022-08-23T14:43:28;36.80;34.50
19292;DHT22;9779;51.756;7.450;2022-08-23T14:45:55;36.40;35.60
19292;DHT22;9779;51.756;7.450;2022-08-23T14:48:21;36.30;35.50
19292;DHT22;9779;51.756;7.450;2022-08-23T14:50:48;35.70;35.80
19292;DHT22;9779;51.756;7.450;2022-08-23T14:53:15;35.50;34.80
19292;DHT22;9779;51.756;7.450;2022-08-23T14:55:41;35.60;35.50
19292;DHT22;9779;51.756;7.450;2022-08-23T14:58:06;35.80;36.50
19292;DHT22;9779;51.756;7.450;2022-08-23T15:00:33;35.60;35.30
19292;DHT22;9779;51.756;7.450;2022-08-23T15:03:02;35.50;36.80
19292;DHT22;9779;51.756;7.450;2022-08-23T15:05:28;35.20;35.80
19292;DHT22;9779;51.756;7.450;2022-08-23T15:07:54;34.90;35.90
19292;DHT22;9779;51.756;7.450;2022-08-23T15:10:20;35.10;35.50
19292;DHT22;9779;51.756;7.450;2022-08-23T15:12:46;35.10;35.10
19292;DHT22;9779;51.756;7.450;2022-08-23T15:15:14;35.30;36.40
19292;DHT22;9779;51.756;7.450;2022-08-23T15:18:01;35.20;35.80
19292;DHT22;9779;51.756;7.450;2022-08-23T15:20:33;35.70;33.80
19292;DHT22;9779;51.756;7.450;2022-08-23T15:23:01;35.80;35.60
19292;DHT22;9779;51.756;7.450;2022-08-23T15:25:29;35.70;35.00
19292;DHT22;9779;51.756;7.450;2022-08-23T15:27:56;35.60;35.20
19292;DHT22;9779;51.756;7.450;2022-08-23T15:30:22;35.70;35.10
19292;DHT22;9779;51.756;7.450;2022-08-23T15:32:48;35.30;34.40
19292;DHT22;9779;51.756;7.450;2022-08-23T15:35:14;35.20;35.70
19292;DHT22;9779;51.756;7.450;2022-08-23T15:37:39;34.90;35.60
19292;DHT22;9779;51.756;7.450;2022-08-23T15:40:06;34.80;36.70
19292;DHT22;9779;51.756;7.450;2022-08-23T15:42:32;34.60;37.00
19292;DHT22;9779;51.756;7.450;2022-08-23T15:44:58;34.20;37.10
19292;DHT22;9779;51.756;7.450;2022-08-23T15:47:27;33.90;37.20
19292;DHT22;9779;51.756;7.450;2022-08-23T15:49:56;34.40;37.60
19292;DHT22;9779;51.756;7.450;2022-08-23T15:52:22;34.80;37.30
19292;DHT22;9779;51.756;7.450;2022-08-23T15:54:48;35.30;38.50
19292;DHT22;9779;51.756;7.450;2022-08-23T15:57:21;35.20;36.70
19292;DHT22;9779;51.756;7.450;2022-08-23T15:59:47;35.20;37.00
19292;DHT22;9779;51.756;7.450;2022-08-23T16:02:13;35.10;36.50
19292;DHT22;9779;51.756;7.450;2022-08-23T16:04:39;34.80;37.70
19292;DHT22;9779;51.756;7.450;2022-08-23T16:07:06;34.90;37.90
19292;DHT22;9779;51.756;7.450;2022-08-23T16:09:33;35.00;38.30
19292;DHT22;9779;51.756;7.450;2022-08-23T16:12:00;34.90;38.00
19292;DHT22;9779;51.756;7.450;2022-08-23T16:14:26;34.70;38.00
19292;DHT22;9779;51.756;7.450;2022-08-23T16:16:51;34.70;38.90
19292;DHT22;9779;51.756;7.450;2022-08-23T16:19:17;34.90;38.60
19292;DHT22;9779;51.756;7.450;2022-08-23T16:21:43;35.00;38.70
19292;DHT22;9779;51.756;7.450;2022-08-23T16:24:09;34.90;38.60
19292;DHT22;9779;51.756;7.450;2022-08-23T16:26:39;34.60;38.70
19292;DHT22;9779;51.756;7.450;2022-08-23T16:29:07;34.10;39.80
19292;DHT22;9779;51.756;7.450;2022-08-23T16:31:33;34.10;39.30
19292;DHT22;9779;51.756;7.450;2022-08-23T16:34:00;34.40;40.90
19292;DHT22;9779;51.756;7.450;2022-08-23T16:36:28;34.10;39.30
19292;DHT22;9779;51.756;7.450;2022-08-23T16:38:54;34.10;40.50
19292;DHT22;9779;51.756;7.450;2022-08-23T16:41:21;34.10;40.70
19292;DHT22;9779;51.756;7.450;2022-08-23T16:43:47;34.30;40.40
19292;DHT22;9779;51.756;7.450;2022-08-23T16:46:13;34.10;39.20
19292;DHT22;9779;51.756;7.450;2022-08-23T16:48:43;34.00;39.80
19292;DHT22;9779;51.756;7.450;2022-08-23T16:51:10;34.10;40.00
19292;DHT22;9779;51.756;7.450;2022-08-23T16:53:36;33.90;40.10
19292;DHT22;9779;51.756;7.450;2022-08-23T16:56:06;34.10;40.20
19292;DHT22;9779;51.756;7.450;2022-08-23T16:58:32;34.00;40.20
19292;DHT22;9779;51.756;7.450;2022-08-23T17:00:58;33.90;40.40
19292;DHT22;9779;51.756;7.450;2022-08-23T17:03:24;33.60;41.10
19292;DHT22;9779;51.756;7.450;2022-08-23T17:05:50;33.40;41.60
19292;DHT22;9779;51.756;7.450;2022-08-23T17:08:16;33.60;42.20
19292;DHT22;9779;51.756;7.450;2022-08-23T17:10:42;33.60;41.70
19292;DHT22;9779;51.756;7.450;2022-08-23T17:13:10;33.70;41.70
19292;DHT22;9779;51.756;7.450;2022-08-23T17:15:36;33.70;41.80
19292;DHT22;9779;51.756;7.450;2022-08-23T17:18:03;33.70;42.00
19292;DHT22;9779;51.756;7.450;2022-08-23T17:20:31;33.70;43.10
19292;DHT22;9779;51.756;7.450;2022-08-23T17:22:58;33.50;42.40
19292;DHT22;9779;51.756;7.450;2022-08-23T17:25:24;33.40;42.60
19292;DHT22;9779;51.756;7.450;2022-08-23T17:27:51;33.40;43.30
19292;DHT22;9779;51.756;7.450;2022-08-23T17:30:19;33.20;43.00